createdAt,value
2019-05-21T00:01:07.327Z,43.23
2019-05-21T00:03:36.494Z,41.83
2019-05-21T00:06:05.775Z,47.60
2019-05-21T00:08:35.120Z,43.83
2019-05-21T00:11:04.303Z,49.93
2019-05-21T00:13:33.578Z,56.73
2019-05-21T00:16:02.795Z,61.60
2019-05-21T00:18:32.031Z,75.72
2019-05-21T00:21:02.669Z,73.83
2019-05-21T00:23:32.019Z,70.57
2019-05-21T00:26:01.457Z,72.53
2019-05-21T00:28:39.182Z,81.15
2019-05-21T00:31:44.815Z,81.95
2019-05-21T00:34:50.557Z,81.82
2019-05-21T00:37:55.576Z,79.72
2019-05-21T00:41:00.806Z,85.57
2019-05-21T00:43:41.100Z,82.47
2019-05-21T00:46:10.435Z,83.90
2019-05-21T00:48:39.626Z,82.75
2019-05-21T00:51:08.802Z,78.97
2019-05-21T00:53:38.077Z,80.83
2019-05-21T00:56:07.443Z,81.35
2019-05-21T00:58:36.869Z,78.28
2019-05-21T01:01:06.057Z,79.47
2019-05-21T01:03:35.589Z,73.25
2019-05-21T01:06:05.016Z,74.83
2019-05-21T01:08:34.347Z,75.05
2019-05-21T01:11:03.605Z,76.97
2019-05-21T01:13:32.754Z,72.30
2019-05-21T01:16:02.523Z,70.15
2019-05-21T01:18:31.691Z,72.05
2019-05-21T01:21:00.974Z,73.55
2019-05-21T01:23:30.539Z,75.15
2019-05-21T01:25:59.767Z,78.40
2019-05-21T01:28:28.978Z,74.77
2019-05-21T01:30:58.292Z,72.05
2019-05-21T01:33:27.575Z,72.67
2019-05-21T01:35:56.980Z,71.95
2019-05-21T01:38:26.194Z,71.12
2019-05-21T01:40:55.393Z,70.22
2019-05-21T01:43:24.566Z,69.20
2019-05-21T01:45:53.809Z,67.32
2019-05-21T01:48:22.990Z,69.82
2019-05-21T01:50:52.211Z,69.37
2019-05-21T01:53:21.444Z,73.20
2019-05-21T01:55:50.654Z,71.77
2019-05-21T01:58:19.921Z,74.25
2019-05-21T02:00:49.149Z,70.62
2019-05-21T02:03:18.493Z,73.05
2019-05-21T02:05:49.027Z,65.65
2019-05-21T02:08:19.638Z,65.95
2019-05-21T02:10:48.893Z,62.05
2019-05-21T02:13:18.181Z,61.85
2019-05-21T02:15:47.384Z,62.30
2019-05-21T02:18:16.555Z,63.00
2019-05-21T02:20:45.768Z,62.70
2019-05-21T02:23:16.532Z,64.15
2019-05-21T02:25:45.677Z,60.40
2019-05-21T02:28:14.908Z,62.50
2019-05-21T02:30:44.126Z,62.05
2019-05-21T02:33:13.355Z,58.83
2019-05-21T02:35:53.551Z,57.85
2019-05-21T02:38:13.727Z,54.53
2019-05-21T02:40:43.099Z,56.45
2019-05-21T02:43:12.371Z,58.80
2019-05-21T02:45:43.003Z,55.30
2019-05-21T02:48:12.390Z,59.60
2019-05-21T02:50:42.027Z,63.02
2019-05-21T02:53:11.543Z,60.78
2019-05-21T02:55:40.742Z,61.92
2019-05-21T02:58:09.897Z,61.92
2019-05-21T03:00:48.821Z,62.27
2019-05-21T03:03:19.125Z,59.27
2019-05-21T03:05:48.278Z,61.02
2019-05-21T03:08:17.483Z,64.00
2019-05-21T03:10:46.858Z,67.58
2019-05-21T03:13:16.035Z,62.55
2019-05-21T03:15:45.258Z,63.87
2019-05-21T03:18:14.421Z,68.02
2019-05-21T03:20:43.573Z,66.27
2019-05-21T03:23:12.785Z,64.40
2019-05-21T03:25:41.935Z,58.48
2019-05-21T03:28:11.196Z,57.95
2019-05-21T03:30:40.377Z,61.60
2019-05-21T03:33:09.700Z,57.03
2019-05-21T03:35:38.892Z,61.13
2019-05-21T03:38:08.062Z,61.37
2019-05-21T03:40:37.289Z,60.15
2019-05-21T03:43:06.441Z,56.50
2019-05-21T03:45:35.746Z,54.90
2019-05-21T03:48:05.131Z,51.63
2019-05-21T03:50:34.377Z,50.63
2019-05-21T03:53:05.106Z,51.00
2019-05-21T03:55:34.251Z,45.92
2019-05-21T03:58:03.540Z,46.73
2019-05-21T04:00:34.392Z,46.98
2019-05-21T04:03:03.815Z,44.70
2019-05-21T04:05:33.022Z,51.83
2019-05-21T04:08:02.280Z,51.75
2019-05-21T04:10:32.631Z,48.37
2019-05-21T04:13:08.740Z,51.20
2019-05-21T04:15:46.795Z,53.30
2019-05-21T04:18:20.557Z,50.92
2019-05-21T04:20:49.882Z,50.92
2019-05-21T04:23:19.197Z,52.03
2019-05-21T04:25:48.382Z,50.80
2019-05-21T04:28:17.691Z,52.13
2019-05-21T04:30:48.654Z,54.00
2019-05-21T04:33:17.858Z,51.45
2019-05-21T04:35:47.246Z,50.92
2019-05-21T04:38:16.592Z,49.43
2019-05-21T04:40:45.741Z,49.95
2019-05-21T04:43:15.062Z,45.03
2019-05-21T04:45:44.276Z,46.18
2019-05-21T04:48:13.441Z,43.95
2019-05-21T04:50:42.637Z,43.17
2019-05-21T04:53:11.847Z,42.93
2019-05-21T04:55:41.023Z,41.45
2019-05-21T04:58:10.356Z,43.20
2019-05-21T05:00:39.566Z,44.15
2019-05-21T05:03:09.198Z,43.37
2019-05-21T05:05:38.597Z,39.03
2019-05-21T05:08:07.829Z,39.45
2019-05-21T05:10:38.135Z,41.35
2019-05-21T05:13:08.521Z,42.13
2019-05-21T05:15:37.889Z,38.10
2019-05-21T05:18:07.029Z,39.03
2019-05-21T05:20:36.971Z,38.60
2019-05-21T05:23:06.283Z,37.03
2019-05-21T05:25:35.500Z,38.10
2019-05-21T05:28:04.842Z,35.48
2019-05-21T05:30:34.029Z,38.02
2019-05-21T05:33:03.497Z,36.15
2019-05-21T05:35:32.842Z,37.58
2019-05-21T05:38:01.995Z,36.73
2019-05-21T05:40:31.259Z,39.38
2019-05-21T05:44:22.615Z,35.30
2019-05-21T05:46:51.951Z,36.08
2019-05-21T05:49:26.428Z,31.95
2019-05-21T05:51:55.727Z,32.53
2019-05-21T05:54:25.104Z,31.20
2019-05-21T05:56:55.615Z,34.67
2019-05-21T05:59:25.933Z,33.73
2019-05-21T06:01:55.145Z,32.10
2019-05-21T06:04:24.435Z,33.42
2019-05-21T06:06:53.634Z,35.03
2019-05-21T06:09:22.967Z,32.50
2019-05-21T06:11:52.183Z,36.35
2019-05-21T06:14:21.430Z,39.23
2019-05-21T06:16:50.774Z,37.25
2019-05-21T06:19:20.002Z,39.15
2019-05-21T06:21:49.308Z,34.65
2019-05-21T06:24:18.970Z,36.68
2019-05-21T06:26:49.249Z,36.05
2019-05-21T06:29:18.809Z,37.90
2019-05-21T06:31:47.959Z,38.48
2019-05-21T06:34:17.203Z,37.93
2019-05-21T06:36:46.510Z,36.08
2019-05-21T06:39:15.712Z,37.23
2019-05-21T06:41:44.959Z,37.45
2019-05-21T06:44:14.135Z,39.78
2019-05-21T06:46:43.500Z,38.78
2019-05-21T06:49:12.738Z,40.83
2019-05-21T06:51:42.036Z,40.70
2019-05-21T06:54:11.522Z,39.42
2019-05-21T06:56:40.739Z,39.10
2019-05-21T06:59:10.000Z,38.83
2019-05-21T07:01:39.295Z,39.48
2019-05-21T07:04:08.555Z,43.35
2019-05-21T07:06:37.819Z,43.15
2019-05-21T07:09:07.934Z,40.38
2019-05-21T07:11:38.962Z,39.40
2019-05-21T07:14:08.125Z,38.23
2019-05-21T07:16:37.371Z,35.52
2019-05-21T07:19:06.604Z,34.13
2019-05-21T07:21:35.932Z,33.07
2019-05-21T07:24:05.116Z,35.38
2019-05-21T07:26:37.703Z,34.08
2019-05-21T07:29:07.183Z,31.70
2019-05-21T07:31:36.377Z,32.53
2019-05-21T07:34:07.240Z,29.67
2019-05-21T07:36:37.572Z,28.73
2019-05-21T07:39:07.606Z,29.92
2019-05-21T07:41:36.820Z,34.80
2019-05-21T07:44:06.109Z,31.23
2019-05-21T07:46:39.470Z,35.28
2019-05-21T07:49:07.506Z,33.15
2019-05-21T07:51:36.782Z,32.67
2019-05-21T07:54:06.070Z,31.90
2019-05-21T07:56:35.390Z,33.67
2019-05-21T07:59:04.942Z,31.42
2019-05-21T08:01:34.150Z,31.65
2019-05-21T08:04:03.329Z,30.08
2019-05-21T08:06:32.584Z,30.05
2019-05-21T08:09:13.285Z,28.77
2019-05-21T08:11:32.777Z,29.65
2019-05-21T08:14:01.933Z,28.55
2019-05-21T08:16:31.129Z,25.32
2019-05-21T08:19:00.314Z,26.30
2019-05-21T08:21:29.541Z,23.03
2019-05-21T08:23:59.838Z,22.10
2019-05-21T08:26:30.380Z,20.80
2019-05-21T08:28:59.653Z,23.30
2019-05-21T08:31:28.862Z,22.35
2019-05-21T08:33:58.167Z,20.65
2019-05-21T08:36:27.420Z,19.82
2019-05-21T08:38:56.674Z,20.15
2019-05-21T08:41:26.091Z,21.15
2019-05-21T08:43:55.336Z,20.82
2019-05-21T08:46:24.562Z,18.87
2019-05-21T08:48:53.842Z,17.77
2019-05-21T08:51:23.082Z,18.92
2019-05-21T08:53:54.306Z,18.35
2019-05-21T08:56:23.702Z,17.75
2019-05-21T08:58:53.938Z,16.75
2019-05-21T09:01:23.227Z,17.25
2019-05-21T09:03:52.662Z,17.82
2019-05-21T09:06:21.930Z,16.27
2019-05-21T09:08:51.252Z,16.10
2019-05-21T09:11:22.215Z,15.70
2019-05-21T09:13:51.522Z,16.57
2019-05-21T09:16:20.709Z,16.27
2019-05-21T09:18:49.918Z,15.70
2019-05-21T09:21:19.138Z,15.20
2019-05-21T09:23:48.413Z,15.13
2019-05-21T09:26:19.214Z,14.35
2019-05-21T09:28:48.477Z,15.03
2019-05-21T09:31:17.805Z,16.05
2019-05-21T09:33:47.035Z,15.35
2019-05-21T09:36:16.268Z,14.53
2019-05-21T09:38:45.581Z,15.43
2019-05-21T09:41:14.983Z,14.73
2019-05-21T09:43:44.177Z,14.53
2019-05-21T09:46:13.581Z,13.50
2019-05-21T09:48:42.934Z,13.05
2019-05-21T09:51:19.804Z,12.25
2019-05-21T09:53:43.222Z,12.85
2019-05-21T09:56:30.165Z,12.85
2019-05-21T09:59:01.456Z,12.80
2019-05-21T10:01:38.883Z,11.93
2019-05-21T10:04:08.097Z,11.95
2019-05-21T10:06:37.328Z,12.15
2019-05-21T10:09:09.850Z,12.35
2019-05-21T10:11:39.061Z,12.82
2019-05-21T10:14:08.282Z,12.18
2019-05-21T10:16:37.488Z,11.70
2019-05-21T10:19:06.741Z,11.90
2019-05-21T10:21:35.945Z,12.47
2019-05-21T10:24:05.290Z,12.80
2019-05-21T10:26:34.603Z,12.47
2019-05-21T10:29:03.813Z,11.60
2019-05-21T10:31:33.015Z,12.13
2019-05-21T10:34:02.367Z,11.53
2019-05-21T10:36:32.122Z,12.10
2019-05-21T10:39:02.545Z,11.80
2019-05-21T10:41:31.770Z,11.10
2019-05-21T10:44:02.156Z,11.78
2019-05-21T10:46:33.031Z,11.97
2019-05-21T10:49:02.211Z,11.90
2019-05-21T10:51:31.401Z,12.23
2019-05-21T10:54:01.372Z,12.25
2019-05-21T10:56:46.796Z,12.60
2019-05-21T10:59:02.621Z,13.03
2019-05-21T11:01:49.204Z,13.30
2019-05-21T11:04:23.858Z,14.60
2019-05-21T11:06:53.172Z,13.72
2019-05-21T11:09:23.255Z,13.88
2019-05-21T11:11:53.476Z,13.93
2019-05-21T11:14:24.268Z,14.95
2019-05-21T11:16:53.442Z,14.28
2019-05-21T11:19:22.734Z,13.80
2019-05-21T11:21:53.044Z,14.38
2019-05-21T11:24:22.335Z,13.30
2019-05-21T11:26:53.017Z,14.20
2019-05-21T11:29:22.184Z,12.83
2019-05-21T11:31:56.969Z,12.80
2019-05-21T11:34:22.596Z,12.80
2019-05-21T11:36:51.761Z,12.95
2019-05-21T11:39:20.978Z,12.57
2019-05-21T11:41:51.775Z,13.35
2019-05-21T11:44:22.931Z,13.72
2019-05-21T11:46:52.176Z,13.25
2019-05-21T11:49:21.569Z,13.20
2019-05-21T11:51:50.844Z,13.13
2019-05-21T11:54:20.003Z,14.00
2019-05-21T11:56:50.711Z,14.25
2019-05-21T11:59:19.891Z,14.58
2019-05-21T12:01:49.420Z,13.70
2019-05-21T12:04:18.615Z,14.53
2019-05-21T12:06:48.042Z,14.80
2019-05-21T12:09:18.493Z,13.55
2019-05-21T12:11:47.837Z,13.65
2019-05-21T12:14:17.056Z,14.33
2019-05-21T12:16:46.218Z,14.58
2019-05-21T12:19:15.406Z,14.60
2019-05-21T12:21:44.598Z,14.07
2019-05-21T12:24:13.854Z,14.43
2019-05-21T12:26:43.074Z,15.38
2019-05-21T12:29:12.305Z,15.70
2019-05-21T12:31:41.528Z,16.52
2019-05-21T12:34:10.748Z,16.45
2019-05-21T12:36:39.915Z,16.20
2019-05-21T12:39:14.037Z,16.52
2019-05-21T12:41:40.107Z,15.45
2019-05-21T12:44:09.372Z,14.90
2019-05-21T12:46:38.614Z,14.68
2019-05-21T12:49:07.801Z,14.95
2019-05-21T12:51:37.043Z,14.53
2019-05-21T12:54:07.687Z,14.50
2019-05-21T12:56:40.603Z,13.68
2019-05-21T12:59:07.822Z,14.53
2019-05-21T13:01:37.177Z,15.32
2019-05-21T13:04:06.392Z,15.10
2019-05-21T13:06:35.558Z,15.23
2019-05-21T13:09:08.087Z,15.67
2019-05-21T13:11:37.544Z,15.80
2019-05-21T13:14:06.933Z,16.00
2019-05-21T13:16:36.111Z,15.50
2019-05-21T13:19:05.648Z,16.10
2019-05-21T13:21:34.873Z,16.15
2019-05-21T13:24:04.514Z,16.67
2019-05-21T13:26:33.842Z,15.90
2019-05-21T13:29:03.081Z,16.62
2019-05-21T13:31:32.353Z,16.48
2019-05-21T13:34:02.366Z,16.27
2019-05-21T13:36:31.572Z,16.97
2019-05-21T13:39:02.233Z,16.90
2019-05-21T13:41:31.411Z,16.73
2019-05-21T13:44:00.758Z,16.25
2019-05-21T13:46:29.945Z,16.87
2019-05-21T13:48:59.119Z,17.27
2019-05-21T13:51:28.332Z,16.82
2019-05-21T13:53:57.518Z,16.52
2019-05-21T13:56:26.729Z,16.85
2019-05-21T13:58:55.923Z,16.48
2019-05-21T14:01:39.911Z,15.70
2019-05-21T14:03:56.459Z,15.10
2019-05-21T14:06:25.734Z,15.45
2019-05-21T14:08:54.954Z,15.03
2019-05-21T14:11:24.252Z,15.55
2019-05-21T14:13:53.589Z,16.12
2019-05-21T14:16:24.244Z,17.60
2019-05-21T14:18:53.606Z,16.97
2019-05-21T14:21:23.164Z,17.75
2019-05-21T14:23:52.398Z,17.60
2019-05-21T14:26:21.577Z,17.65
2019-05-21T14:28:50.924Z,17.55
2019-05-21T14:31:20.215Z,16.90
2019-05-21T14:33:51.184Z,18.52
2019-05-21T14:36:20.412Z,17.87
2019-05-21T14:38:49.766Z,18.52
2019-05-21T14:41:18.982Z,18.95
2019-05-21T14:43:48.167Z,19.10
2019-05-21T14:46:17.667Z,19.85
2019-05-21T14:48:48.495Z,20.88
2019-05-21T14:51:17.738Z,20.52
2019-05-21T14:53:47.257Z,21.73
2019-05-21T14:56:16.558Z,23.35
2019-05-21T14:58:45.931Z,24.05
2019-05-21T15:01:15.135Z,22.23
2019-05-21T15:03:44.488Z,24.50
2019-05-21T15:06:13.691Z,24.12
2019-05-21T15:08:42.920Z,23.87
2019-05-21T15:11:12.155Z,22.98
2019-05-21T15:13:41.750Z,23.18
2019-05-21T15:16:10.998Z,23.25
2019-05-21T15:18:40.159Z,23.30
2019-05-21T15:21:17.808Z,47.05
2019-05-21T15:23:47.833Z,37.73
2019-05-21T15:26:17.783Z,22.55
2019-05-21T15:28:46.997Z,23.70
2019-05-21T15:31:16.250Z,21.40
2019-05-21T15:33:45.523Z,21.97
2019-05-21T15:36:14.812Z,22.70
2019-05-21T15:38:50.358Z,35.83
2019-05-21T15:41:15.173Z,24.90
2019-05-21T15:43:44.367Z,22.65
2019-05-21T15:46:13.599Z,22.62
2019-05-21T15:48:42.856Z,22.25
2019-05-21T15:51:12.223Z,32.15
2019-05-21T15:53:41.435Z,44.18
2019-05-21T15:56:12.459Z,21.80
2019-05-21T15:58:41.773Z,22.65
2019-05-21T16:01:11.016Z,22.10
2019-05-21T16:03:40.206Z,22.80
2019-05-21T16:06:09.442Z,21.75
2019-05-21T16:08:38.822Z,22.32
2019-05-21T16:11:08.257Z,42.90
2019-05-21T16:13:37.441Z,22.32
2019-05-21T16:16:06.644Z,22.05
2019-05-21T16:18:37.003Z,22.32
2019-05-21T16:21:06.372Z,21.87
2019-05-21T16:23:35.992Z,21.07
2019-05-21T16:26:05.362Z,21.87
2019-05-21T16:28:34.802Z,21.50
2019-05-21T16:31:04.091Z,21.50
2019-05-21T16:33:33.629Z,21.90
2019-05-21T16:36:02.876Z,22.17
2019-05-21T16:38:32.065Z,22.25
2019-05-21T16:41:01.780Z,21.87
2019-05-21T16:43:30.960Z,22.00
2019-05-21T16:46:00.130Z,21.73
2019-05-21T16:48:29.369Z,22.50
2019-05-21T16:50:58.553Z,22.73
2019-05-21T16:53:27.811Z,22.73
2019-05-21T16:55:56.968Z,22.90
2019-05-21T16:58:26.203Z,22.77
2019-05-21T17:00:56.438Z,22.85
2019-05-21T17:03:25.645Z,22.67
2019-05-21T17:05:54.868Z,23.50
2019-05-21T17:08:24.162Z,22.37
2019-05-21T17:10:53.392Z,21.65
2019-05-21T17:13:22.572Z,21.53
2019-05-21T17:15:51.826Z,21.48
2019-05-21T17:18:21.144Z,22.75
2019-05-21T17:20:50.543Z,22.17
2019-05-21T17:23:19.766Z,22.32
2019-05-21T17:25:49.100Z,22.37
2019-05-21T17:28:18.380Z,22.98
2019-05-21T17:30:47.820Z,26.15
2019-05-21T17:33:16.981Z,25.20
2019-05-21T17:35:47.316Z,25.32
2019-05-21T17:38:16.799Z,26.25
2019-05-21T17:40:46.230Z,27.67
2019-05-21T17:43:15.578Z,28.60
2019-05-21T17:45:46.351Z,28.55
2019-05-21T17:48:16.090Z,28.85
2019-05-21T17:50:45.370Z,27.40
2019-05-21T17:53:14.849Z,27.93
2019-05-21T17:55:44.070Z,27.47
2019-05-21T17:58:15.719Z,26.02
2019-05-21T18:00:58.471Z,27.87
2019-05-21T18:03:27.906Z,26.73
2019-05-21T18:05:58.277Z,27.07
2019-05-21T18:08:27.879Z,27.77
2019-05-21T18:10:57.579Z,26.23
2019-05-21T18:13:27.202Z,25.30
2019-05-21T18:15:58.679Z,26.03
2019-05-21T18:18:28.172Z,27.02
2019-05-21T18:20:57.750Z,28.30
2019-05-21T18:23:27.580Z,26.70
2019-05-21T18:25:57.130Z,30.80
2019-05-21T18:28:26.441Z,29.50
2019-05-21T18:30:56.372Z,32.13
2019-05-21T18:33:25.756Z,30.32
2019-05-21T18:35:55.342Z,30.90
2019-05-21T18:38:24.916Z,32.17
2019-05-21T18:40:54.557Z,29.82
2019-05-21T18:43:24.010Z,31.23
2019-05-21T18:45:53.639Z,36.33
2019-05-21T18:48:23.114Z,31.77
2019-05-21T18:50:52.663Z,36.53
2019-05-21T18:53:23.251Z,35.38
2019-05-21T18:55:52.657Z,36.17
2019-05-21T18:58:23.177Z,37.80
2019-05-21T19:00:53.031Z,35.95
2019-05-21T19:03:25.877Z,39.23
2019-05-21T19:05:54.004Z,40.60
2019-05-21T19:08:23.308Z,38.98
2019-05-21T19:10:53.106Z,39.15
2019-05-21T19:13:22.973Z,40.30
2019-05-21T19:15:52.509Z,40.67
2019-05-21T19:18:21.883Z,40.95
2019-05-21T19:20:51.502Z,41.33
2019-05-21T19:23:22.634Z,40.88
2019-05-21T19:25:52.227Z,40.12
2019-05-21T19:28:21.591Z,39.05
2019-05-21T19:30:53.142Z,39.50
2019-05-21T19:33:22.454Z,39.27
2019-05-21T19:35:52.123Z,38.63
2019-05-21T19:38:21.364Z,38.08
2019-05-21T19:40:52.040Z,37.65
2019-05-21T19:43:22.382Z,38.35
2019-05-21T19:45:51.626Z,38.25
2019-05-21T19:48:22.197Z,37.13
2019-05-21T19:50:54.223Z,37.25
2019-05-21T19:53:24.409Z,37.10
2019-05-21T19:55:57.063Z,38.78
2019-05-21T19:58:29.475Z,37.67
2019-05-21T20:00:59.283Z,39.75
2019-05-21T20:03:30.064Z,38.88
2019-05-21T20:06:02.312Z,39.53
2019-05-21T20:08:32.155Z,39.38
2019-05-21T20:11:02.580Z,42.70
2019-05-21T20:13:33.944Z,41.50
2019-05-21T20:16:04.976Z,38.87
2019-05-21T20:18:36.027Z,42.03
2019-05-21T20:21:07.327Z,41.60
2019-05-21T20:23:38.229Z,41.83
2019-05-21T20:26:10.467Z,41.98
2019-05-21T20:28:39.810Z,42.73
2019-05-21T20:31:09.479Z,46.18
2019-05-21T20:33:39.039Z,40.03
2019-05-21T20:36:08.480Z,41.15
2019-05-21T20:38:39.863Z,41.20
2019-05-21T20:41:09.561Z,45.92
2019-05-21T20:43:39.151Z,41.70
2019-05-21T20:46:10.991Z,46.23
2019-05-21T20:48:40.567Z,49.18
2019-05-21T20:51:09.851Z,46.85
2019-05-21T20:53:39.156Z,51.05
2019-05-21T20:56:09.455Z,53.52
2019-05-21T20:58:38.982Z,56.42
2019-05-21T21:01:08.556Z,56.85
2019-05-21T21:03:37.852Z,53.85
2019-05-21T21:06:07.555Z,53.33
2019-05-21T21:08:37.633Z,59.40
2019-05-21T21:11:09.081Z,55.80
2019-05-21T21:13:39.066Z,57.88
2019-05-21T21:16:08.337Z,58.13
2019-05-21T21:18:38.722Z,55.52
2019-05-21T21:21:07.957Z,61.02
2019-05-21T21:23:37.195Z,56.75
2019-05-21T21:26:06.548Z,57.80
2019-05-21T21:28:35.749Z,57.17
2019-05-21T21:31:05.236Z,55.90
2019-05-21T21:33:34.438Z,56.48
2019-05-21T21:36:03.706Z,54.77
2019-05-21T21:38:36.224Z,56.08
2019-05-21T21:41:05.762Z,54.23
2019-05-21T21:43:35.032Z,54.40
2019-05-21T21:46:04.459Z,55.90
2019-05-21T21:48:33.653Z,53.38
2019-05-21T21:51:04.823Z,51.87
2019-05-21T21:53:34.251Z,56.25
2019-05-21T21:56:03.797Z,52.85
2019-05-21T21:58:33.056Z,52.78
2019-05-21T22:01:32.641Z,50.12
2019-05-21T22:04:04.320Z,51.27
2019-05-21T22:06:35.483Z,51.53
2019-05-21T22:09:07.985Z,50.83
2019-05-21T22:11:37.336Z,52.17
2019-05-21T22:14:07.299Z,54.10
2019-05-21T22:16:37.331Z,52.20
2019-05-21T22:19:08.400Z,48.93
2019-05-21T22:21:38.069Z,50.35
2019-05-21T22:24:07.516Z,50.88
2019-05-21T22:26:36.676Z,50.43
2019-05-21T22:29:05.945Z,49.83
2019-05-21T22:31:35.154Z,48.13
2019-05-21T22:34:04.355Z,50.93
2019-05-21T22:36:33.608Z,48.55
2019-05-21T22:39:02.875Z,48.80
2019-05-21T22:41:32.086Z,48.38
2019-05-21T22:44:02.117Z,47.98
2019-05-21T22:46:31.323Z,54.88
2019-05-21T22:49:00.515Z,50.88
2019-05-21T22:51:29.782Z,45.90
2019-05-21T22:53:58.981Z,43.83
2019-05-21T22:56:28.218Z,47.13
2019-05-21T22:58:57.543Z,45.50
2019-05-21T23:01:28.036Z,46.13
2019-05-21T23:03:57.271Z,45.17
2019-05-21T23:06:27.991Z,42.73
2019-05-21T23:08:57.469Z,40.10
2019-05-21T23:11:26.732Z,40.38
2019-05-21T23:13:55.906Z,39.85
2019-05-21T23:16:26.679Z,39.00
2019-05-21T23:18:56.702Z,37.17
2019-05-21T23:21:28.150Z,32.30
2019-05-21T23:23:59.185Z,35.80
2019-05-21T23:26:28.530Z,38.85
2019-05-21T23:28:58.142Z,37.00
2019-05-21T23:31:27.682Z,35.13
2019-05-21T23:33:58.685Z,36.88
2019-05-21T23:36:30.449Z,35.60
2019-05-21T23:39:00.260Z,36.98
2019-05-21T23:41:29.482Z,33.07
2019-05-21T23:43:59.700Z,32.38
2019-05-21T23:46:29.754Z,35.68
2019-05-21T23:48:59.333Z,36.95
2019-05-21T23:51:28.576Z,36.60
2019-05-21T23:53:58.116Z,34.63
2019-05-21T23:56:27.396Z,35.88
2019-05-21T23:58:57.007Z,34.27
